createdAt,value
2019-05-17T04:25:28.616Z,11.07
2019-05-17T04:28:02.700Z,11.67
2019-05-17T04:30:32.804Z,11.40
2019-05-17T04:33:04.004Z,11.20
2019-05-17T04:35:36.673Z,11.50
2019-05-17T04:38:07.067Z,11.30
2019-05-17T04:40:38.574Z,11.20
2019-05-17T04:43:08.894Z,12.03
2019-05-17T04:45:42.607Z,11.10
2019-05-17T04:48:13.364Z,11.43
2019-05-17T04:50:43.786Z,11.10
2019-05-17T04:53:14.161Z,11.23
2019-05-17T04:55:44.703Z,11.37
2019-05-17T04:58:14.970Z,11.27
2019-05-17T05:00:53.640Z,11.27
2019-05-17T05:03:28.840Z,10.63
2019-05-17T05:06:02.628Z,11.40
2019-05-17T05:08:33.012Z,10.73
2019-05-17T05:11:04.363Z,10.90
2019-05-17T05:13:34.910Z,12.00
2019-05-17T05:16:05.224Z,11.50
2019-05-17T05:18:35.516Z,12.60
2019-05-17T05:21:06.939Z,12.23
2019-05-17T05:23:38.418Z,12.17
2019-05-17T05:26:08.733Z,12.10
2019-05-17T05:28:39.061Z,11.67
2019-05-17T05:31:09.388Z,12.73
2019-05-17T05:33:41.947Z,12.57
2019-05-17T05:36:11.832Z,12.60
2019-05-17T05:38:42.361Z,12.30
2019-05-17T05:41:12.774Z,12.73
2019-05-17T05:43:43.159Z,13.30
2019-05-17T05:46:13.485Z,13.17
2019-05-17T05:48:43.779Z,13.40
2019-05-17T05:51:14.173Z,12.93
2019-05-17T05:53:44.634Z,13.50
2019-05-17T05:56:14.936Z,12.60
2019-05-17T05:58:45.215Z,13.17
2019-05-17T06:01:15.609Z,13.13
2019-05-17T06:03:45.828Z,12.80
2019-05-17T06:06:16.132Z,12.97
2019-05-17T06:08:46.425Z,13.07
2019-05-17T06:11:16.840Z,13.20
2019-05-17T06:13:47.151Z,13.07
2019-05-17T06:16:17.680Z,13.13
2019-05-17T06:18:48.003Z,13.50
2019-05-17T06:21:18.462Z,13.23
2019-05-17T06:23:51.756Z,12.47
2019-05-17T06:26:23.725Z,12.93
2019-05-17T06:28:54.173Z,12.53
2019-05-17T06:31:24.565Z,12.53
2019-05-17T06:33:55.614Z,13.67
2019-05-17T06:36:25.901Z,13.17
2019-05-17T06:38:56.215Z,13.33
2019-05-17T06:41:26.537Z,12.43
2019-05-17T06:43:56.855Z,12.93
2019-05-17T06:46:27.156Z,12.37
2019-05-17T06:48:57.471Z,13.37
2019-05-17T06:51:27.834Z,13.57
2019-05-17T06:53:58.139Z,13.87
2019-05-17T06:56:28.400Z,13.60
2019-05-17T06:58:58.745Z,13.50
2019-05-17T07:01:29.263Z,14.10
2019-05-17T07:04:00.348Z,13.93
2019-05-17T07:06:32.377Z,13.67
2019-05-17T07:09:02.698Z,13.33
2019-05-17T07:11:33.443Z,13.50
2019-05-17T07:14:03.765Z,13.27
2019-05-17T07:16:34.081Z,13.60
2019-05-17T07:19:04.367Z,13.37
2019-05-17T07:21:34.675Z,13.87
2019-05-17T07:24:04.970Z,13.30
2019-05-17T07:26:36.256Z,14.50
2019-05-17T07:29:06.569Z,14.63
2019-05-17T07:31:36.893Z,14.23
2019-05-17T07:34:09.138Z,15.00
2019-05-17T07:36:39.743Z,14.57
2019-05-17T07:39:10.877Z,15.77
2019-05-17T07:41:41.226Z,15.70
2019-05-17T07:44:13.648Z,15.60
2019-05-17T07:46:43.931Z,15.07
2019-05-17T07:49:14.236Z,15.80
2019-05-17T07:51:44.527Z,15.80
2019-05-17T07:54:14.847Z,15.90
2019-05-17T07:56:45.199Z,16.23
2019-05-17T07:59:15.573Z,15.80
2019-05-17T08:01:45.872Z,15.20
2019-05-17T08:04:17.245Z,15.60
2019-05-17T08:06:47.519Z,15.70
2019-05-17T08:09:20.334Z,15.33
2019-05-17T08:11:50.203Z,15.93
2019-05-17T08:14:29.967Z,15.73
2019-05-17T08:16:52.480Z,15.70
2019-05-17T08:19:22.850Z,15.90
2019-05-17T08:21:53.157Z,15.53
2019-05-17T08:24:23.437Z,16.00
2019-05-17T08:26:53.761Z,16.97
2019-05-17T08:29:24.036Z,16.83
2019-05-17T08:31:54.336Z,16.17
2019-05-17T08:34:24.615Z,16.77
2019-05-17T08:36:54.924Z,25.17
2019-05-17T08:39:25.228Z,22.10
2019-05-17T08:41:55.520Z,20.00
2019-05-17T08:44:26.292Z,17.73
2019-05-17T08:46:56.621Z,15.63
2019-05-17T08:49:27.403Z,16.70
2019-05-17T08:51:59.457Z,16.33
2019-05-17T08:54:30.436Z,15.00
2019-05-17T08:57:00.901Z,15.80
2019-05-17T08:59:32.159Z,16.70
2019-05-17T09:02:02.449Z,16.47
2019-05-17T09:04:32.716Z,15.93
2019-05-17T09:07:03.310Z,16.40
2019-05-17T09:09:34.932Z,16.20
2019-05-17T09:12:05.285Z,16.10
2019-05-17T09:14:35.569Z,16.97
2019-05-17T09:17:05.899Z,17.93
2019-05-17T09:19:36.249Z,16.80
2019-05-17T09:22:06.539Z,17.07
2019-05-17T09:24:36.817Z,16.00
2019-05-17T09:27:07.120Z,15.77
2019-05-17T09:29:37.433Z,16.60
2019-05-17T09:32:09.536Z,16.50
2019-05-17T09:34:40.403Z,16.90
2019-05-17T09:37:10.856Z,17.43
2019-05-17T09:39:41.124Z,16.47
2019-05-17T09:42:11.427Z,15.70
2019-05-17T09:44:41.712Z,15.83
2019-05-17T09:47:12.050Z,16.27
2019-05-17T09:49:42.332Z,16.20
2019-05-17T09:52:13.696Z,16.13
2019-05-17T09:54:45.474Z,16.77
2019-05-17T09:57:16.010Z,15.23
2019-05-17T09:59:46.335Z,15.77
2019-05-17T10:02:16.630Z,16.03
2019-05-17T10:04:46.935Z,15.77
2019-05-17T10:07:17.280Z,17.00
2019-05-17T10:09:50.050Z,17.10
2019-05-17T10:12:20.301Z,16.40
2019-05-17T10:14:50.840Z,15.57
2019-05-17T10:17:22.158Z,16.60
2019-05-17T10:19:53.819Z,15.73
2019-05-17T10:22:24.103Z,16.17
2019-05-17T10:24:54.906Z,16.27
2019-05-17T10:27:25.239Z,15.17
2019-05-17T10:29:55.652Z,16.00
2019-05-17T10:32:30.946Z,14.83
2019-05-17T10:35:00.582Z,15.10
2019-05-17T10:37:40.347Z,14.90
2019-05-17T10:40:15.694Z,13.70
2019-05-17T10:42:50.019Z,14.70
2019-05-17T10:45:23.216Z,13.87
2019-05-17T10:47:53.714Z,13.53
2019-05-17T10:50:24.033Z,13.13
2019-05-17T10:53:00.201Z,12.47
2019-05-17T10:55:30.225Z,12.68
2019-05-17T10:58:00.648Z,13.25
2019-05-17T11:00:32.189Z,13.15
2019-05-17T11:03:02.575Z,13.60
2019-05-17T11:05:40.207Z,13.53
2019-05-17T11:08:07.186Z,12.95
2019-05-17T11:10:39.290Z,12.55
2019-05-17T11:13:11.120Z,12.50
2019-05-17T11:15:42.600Z,13.40
2019-05-17T11:18:17.505Z,12.73
2019-05-17T11:20:47.894Z,12.27
2019-05-17T11:23:18.289Z,12.30
2019-05-17T11:25:57.089Z,12.15
2019-05-17T11:28:29.343Z,11.57
2019-05-17T11:31:01.298Z,11.70
2019-05-17T11:33:31.639Z,11.57
2019-05-17T11:36:06.076Z,11.85
2019-05-17T11:38:38.571Z,11.70
2019-05-17T11:41:20.732Z,11.60
2019-05-17T11:43:43.586Z,11.40
2019-05-17T11:46:12.817Z,12.30
2019-05-17T11:48:45.337Z,11.78
2019-05-17T11:51:17.530Z,11.73
2019-05-17T11:53:52.767Z,9.83
2019-05-17T11:56:23.077Z,10.40
2019-05-17T11:59:00.029Z,9.73
2019-05-17T12:01:33.241Z,8.25
2019-05-17T12:04:11.074Z,8.20
2019-05-17T12:06:41.378Z,8.15
2019-05-17T12:09:11.654Z,8.30
2019-05-17T12:11:42.013Z,8.25
2019-05-17T12:14:12.264Z,8.18
2019-05-17T12:16:42.584Z,9.10
2019-05-17T12:19:12.887Z,8.80
2019-05-17T12:25:01.173Z,9.70
2019-05-17T12:27:32.788Z,9.05
2019-05-17T12:30:03.122Z,8.18
2019-05-17T12:32:34.480Z,7.78
2019-05-17T12:35:04.780Z,7.53
2019-05-17T12:37:35.099Z,7.53
2019-05-17T12:40:17.091Z,7.87
2019-05-17T12:42:50.076Z,7.08
2019-05-17T12:45:22.158Z,6.33
2019-05-17T12:47:53.320Z,7.03
2019-05-17T12:50:31.572Z,6.83
2019-05-17T12:56:05.463Z,6.17
2019-05-17T12:58:35.825Z,5.97
2019-05-17T13:01:09.417Z,5.53
2019-05-17T13:03:43.369Z,5.40
2019-05-17T13:06:15.057Z,7.12
2019-05-17T13:08:45.849Z,6.60
2019-05-17T13:11:16.588Z,6.10
2019-05-17T13:13:47.629Z,6.00
2019-05-17T13:16:19.580Z,6.45
2019-05-17T13:18:51.005Z,6.05
2019-05-17T13:21:33.726Z,5.40
2019-05-17T13:24:04.202Z,6.22
2019-05-17T13:26:35.421Z,6.37
2019-05-17T13:29:08.540Z,5.92
2019-05-17T13:31:41.444Z,5.30
2019-05-17T14:05:42.878Z,5.42
2019-05-17T14:08:14.686Z,5.62
2019-05-17T14:10:46.691Z,5.33
2019-05-17T14:13:18.007Z,5.53
2019-05-17T14:15:48.555Z,5.58
2019-05-17T14:18:20.077Z,5.33
2019-05-17T14:20:53.204Z,5.35
2019-05-17T14:23:23.935Z,5.25
2019-05-17T14:25:54.242Z,4.53
2019-05-17T14:28:25.094Z,5.20
2019-05-17T14:30:58.152Z,4.72
2019-05-17T14:33:30.915Z,5.50
2019-05-17T14:36:01.941Z,5.30
2019-05-17T14:38:32.395Z,5.58
2019-05-17T14:41:07.426Z,5.25
2019-05-17T14:43:35.998Z,5.53
2019-05-17T14:46:06.523Z,5.40
2019-05-17T14:48:38.205Z,5.25
2019-05-17T14:51:09.097Z,5.75
2019-05-17T14:53:40.146Z,4.95
2019-05-17T14:56:10.633Z,5.40
2019-05-17T14:58:41.000Z,4.42
2019-05-17T15:01:11.713Z,4.83
2019-05-17T15:03:42.100Z,5.58
2019-05-17T15:06:13.308Z,5.03
2019-05-17T15:08:43.606Z,4.92
2019-05-17T15:11:19.575Z,5.90
2019-05-17T15:14:22.710Z,5.33
2019-05-17T15:17:08.396Z,4.72
2019-05-17T15:19:55.992Z,5.97
2019-05-17T15:23:02.338Z,6.03
2019-05-17T15:25:38.800Z,5.30
2019-05-17T15:28:29.979Z,5.20
2019-05-17T15:31:02.149Z,5.58
2019-05-17T15:33:37.024Z,4.97
2019-05-17T15:36:07.385Z,5.10
2019-05-17T15:38:37.904Z,5.35
2019-05-17T15:41:08.229Z,5.40
2019-05-17T15:43:38.601Z,6.92
2019-05-17T15:46:08.926Z,5.97
2019-05-17T15:48:39.587Z,5.58
2019-05-17T15:51:10.404Z,5.62
2019-05-17T15:53:40.941Z,6.90
2019-05-17T15:56:12.165Z,6.40
2019-05-17T15:58:43.803Z,6.08
2019-05-17T16:01:14.353Z,6.25
2019-05-17T16:03:44.634Z,6.10
2019-05-17T16:06:14.919Z,6.60
2019-05-17T16:08:45.212Z,6.30
2019-05-17T16:11:15.489Z,6.12
2019-05-17T16:13:45.744Z,6.28
2019-05-17T16:16:16.072Z,5.72
2019-05-17T16:18:46.501Z,6.35
2019-05-17T16:21:16.836Z,6.10
2019-05-17T16:23:47.307Z,6.45
2019-05-17T16:26:17.602Z,5.80
2019-05-17T16:28:48.693Z,5.40
2019-05-17T16:31:19.013Z,5.35
2019-05-17T16:33:50.976Z,6.85
2019-05-17T16:36:21.377Z,6.10
2019-05-17T16:38:51.637Z,5.45
2019-05-17T16:41:22.009Z,5.10
2019-05-17T16:43:52.259Z,5.35
2019-05-17T16:46:22.544Z,5.20
2019-05-17T16:48:52.832Z,5.60
2019-05-17T16:51:23.100Z,5.28
2019-05-17T16:53:53.382Z,5.20
2019-05-17T16:56:24.834Z,5.40
2019-05-17T16:58:55.128Z,5.30
2019-05-17T17:01:26.459Z,5.50
2019-05-17T17:03:56.785Z,5.25
2019-05-17T17:06:27.045Z,5.42
2019-05-17T17:08:57.343Z,5.30
2019-05-17T17:11:27.643Z,5.10
2019-05-17T17:13:57.931Z,4.80
2019-05-17T17:16:28.238Z,5.97
2019-05-17T17:18:58.546Z,5.60
2019-05-17T17:21:28.844Z,5.87
2019-05-17T17:23:59.255Z,5.10
2019-05-17T17:26:29.541Z,5.78
2019-05-17T17:28:59.843Z,5.10
2019-05-17T17:31:30.221Z,4.47
2019-05-17T17:34:00.527Z,4.62
2019-05-17T17:36:30.793Z,4.95
2019-05-17T17:39:01.079Z,4.60
2019-05-17T17:41:31.723Z,4.55
2019-05-17T17:44:02.008Z,4.62
2019-05-17T17:46:32.288Z,4.50
2019-05-17T17:49:02.572Z,4.40
2019-05-17T17:51:32.901Z,4.60
2019-05-17T17:54:05.351Z,4.67
2019-05-17T17:56:35.661Z,4.28
2019-05-17T17:59:07.114Z,4.03
2019-05-17T18:01:37.913Z,4.20
2019-05-17T18:04:08.478Z,4.20
2019-05-17T18:06:40.343Z,4.10
2019-05-17T18:09:11.578Z,4.10
2019-05-17T18:11:42.145Z,4.33
2019-05-17T18:14:14.808Z,4.28
2019-05-17T18:16:45.386Z,4.07
2019-05-17T18:19:23.020Z,3.80
2019-05-17T18:21:53.863Z,4.10
2019-05-17T18:24:24.227Z,4.10
2019-05-17T18:26:55.368Z,4.12
2019-05-17T18:29:26.798Z,3.80
2019-05-17T18:31:59.684Z,3.97
2019-05-17T18:34:33.165Z,3.97
2019-05-17T18:37:04.753Z,3.83
2019-05-17T18:39:35.106Z,4.00
2019-05-17T18:42:11.739Z,3.50
2019-05-17T18:44:42.296Z,3.73
2019-05-17T18:47:12.641Z,3.80
2019-05-17T18:49:43.263Z,4.07
2019-05-17T18:52:13.696Z,4.00
2019-05-17T18:54:44.493Z,3.50
2019-05-17T18:57:14.868Z,4.03
2019-05-17T18:59:45.221Z,3.70
2019-05-17T19:02:15.802Z,3.77
2019-05-17T19:04:46.392Z,3.60
2019-05-17T19:07:16.744Z,3.77
2019-05-17T19:09:48.374Z,3.70
2019-05-17T19:12:20.783Z,3.70
2019-05-17T19:14:55.301Z,3.73
2019-05-17T19:17:29.334Z,3.80
2019-05-17T19:19:59.755Z,3.70
2019-05-17T19:22:30.091Z,3.60
2019-05-17T19:25:03.173Z,3.80
2019-05-17T19:27:33.848Z,3.63
2019-05-17T19:30:04.888Z,3.87
2019-05-17T19:32:35.211Z,4.10
2019-05-17T19:35:08.443Z,4.30
2019-05-17T19:37:38.735Z,4.10
2019-05-17T19:40:10.340Z,4.03
2019-05-17T19:42:40.946Z,4.40
2019-05-17T19:45:13.384Z,4.47
2019-05-17T19:47:43.741Z,4.40
2019-05-17T19:50:15.317Z,4.33
2019-05-17T19:52:46.641Z,4.50
2019-05-17T19:55:19.945Z,4.27
2019-05-17T19:57:51.591Z,4.40
2019-05-17T20:00:23.588Z,4.40
2019-05-17T20:02:55.788Z,4.10
2019-05-17T20:05:26.155Z,4.70
2019-05-17T20:07:56.951Z,4.33
2019-05-17T20:10:32.168Z,4.33
2019-05-17T20:13:04.864Z,4.10
2019-05-17T20:15:36.519Z,4.27
2019-05-17T20:18:07.465Z,4.43
2019-05-17T20:20:37.838Z,4.67
2019-05-17T20:23:08.864Z,4.60
2019-05-17T20:25:40.024Z,4.60
2019-05-17T20:28:11.123Z,4.67
2019-05-17T20:30:41.671Z,4.37
2019-05-17T20:33:12.704Z,4.40
2019-05-17T20:35:43.073Z,4.30
2019-05-17T20:38:13.794Z,4.60
2019-05-17T20:40:44.839Z,4.30
2019-05-17T20:43:15.866Z,4.30
2019-05-17T20:45:48.052Z,4.37
2019-05-17T20:48:18.957Z,4.53
2019-05-17T20:50:49.368Z,4.27
2019-05-17T20:53:19.766Z,4.50
2019-05-17T20:55:50.647Z,3.97
2019-05-17T20:58:21.649Z,4.20
2019-05-17T21:00:54.446Z,4.10
2019-05-17T21:03:25.050Z,4.23
2019-05-17T21:05:55.472Z,4.60
2019-05-17T21:08:26.847Z,3.43
2019-05-17T21:10:57.532Z,3.87
2019-05-17T21:13:31.968Z,3.80
2019-05-17T21:16:02.440Z,3.47
2019-05-17T21:18:32.770Z,3.20
2019-05-17T21:21:03.935Z,3.33
2019-05-17T21:23:34.339Z,3.30
2019-05-17T21:26:04.661Z,3.60
2019-05-17T21:28:34.965Z,3.63
2019-05-17T21:31:08.039Z,3.57
2019-05-17T21:33:37.144Z,3.70
2019-05-17T21:36:07.416Z,4.10
2019-05-17T21:38:37.740Z,4.00
2019-05-17T21:41:08.013Z,3.97
2019-05-17T21:43:38.414Z,4.40
2019-05-17T21:46:08.668Z,4.27
2019-05-17T21:48:38.952Z,4.33
2019-05-17T21:51:09.208Z,4.37
2019-05-17T21:53:39.492Z,4.23
2019-05-17T21:56:09.744Z,4.30
2019-05-17T21:58:40.048Z,4.70
2019-05-17T22:01:14.274Z,4.70
2019-05-17T22:03:44.921Z,4.90
2019-05-17T22:06:15.191Z,5.60
2019-05-17T22:08:45.500Z,6.20
2019-05-17T22:11:15.770Z,6.30
2019-05-17T22:13:46.029Z,6.33
2019-05-17T22:16:19.537Z,5.93
2019-05-17T22:18:48.236Z,6.10
2019-05-17T22:21:18.509Z,6.07
2019-05-17T22:23:48.809Z,6.10
2019-05-17T22:26:19.082Z,6.00
2019-05-17T22:28:49.358Z,5.60
2019-05-17T22:31:19.612Z,5.60
2019-05-17T22:33:49.905Z,5.70
2019-05-17T22:36:20.161Z,6.00
2019-05-17T22:38:50.441Z,6.30
2019-05-17T22:41:20.695Z,6.10
2019-05-17T22:43:50.976Z,6.57
2019-05-17T22:46:35.059Z,6.17
2019-05-17T22:48:53.168Z,6.50
2019-05-17T22:51:23.419Z,5.60
2019-05-17T22:53:53.692Z,6.23
2019-05-17T22:56:23.964Z,6.37
2019-05-17T22:58:54.240Z,6.10
2019-05-17T23:01:24.537Z,6.00
2019-05-17T23:03:54.835Z,6.20
2019-05-17T23:06:25.084Z,5.30
2019-05-17T23:08:55.362Z,5.57
2019-05-17T23:11:26.595Z,5.27
2019-05-17T23:13:56.869Z,4.83
2019-05-17T23:16:27.281Z,5.03
2019-05-17T23:19:10.625Z,4.60
2019-05-17T23:21:40.886Z,4.73
2019-05-17T23:24:11.173Z,4.80
2019-05-17T23:26:41.448Z,4.87
2019-05-17T23:29:11.768Z,4.80
2019-05-17T23:31:42.021Z,4.30
2019-05-17T23:34:12.304Z,4.70
2019-05-17T23:36:42.589Z,4.83
2019-05-17T23:39:12.831Z,4.77
2019-05-17T23:41:43.114Z,5.43
2019-05-17T23:44:13.498Z,7.00
2019-05-17T23:46:43.773Z,6.47
2019-05-17T23:49:14.019Z,5.97
2019-05-17T23:51:44.232Z,5.60
2019-05-17T23:54:14.510Z,5.57
2019-05-17T23:56:44.796Z,5.93
2019-05-17T23:59:15.059Z,5.97
